sensor_id;sensor_type;location;lat;lon;timestamp;P1;durP1;ratioP1;P2;durP2;ratioP2
36931;SDS011;22847;42.654;23.370;2023-03-01T00:01:16;5.72;;;3.83;;
36931;SDS011;22847;42.654;23.370;2023-03-01T00:03:44;5.13;;;4.07;;
36931;SDS011;22847;42.654;23.370;2023-03-01T00:06:10;5.75;;;4.20;;
36931;SDS011;22847;42.654;23.370;2023-03-01T00:08:35;6.50;;;4.35;;
36931;SDS011;22847;42.654;23.370;2023-03-01T00:13:31;5.72;;;3.67;;
36931;SDS011;22847;42.654;23.370;2023-03-01T00:15:57;5.25;;;3.60;;
36931;SDS011;22847;42.654;23.370;2023-03-01T00:18:22;6.50;;;4.00;;
36931;SDS011;22847;42.654;23.370;2023-03-01T00:20:51;7.15;;;4.40;;
36931;SDS011;22847;42.654;23.370;2023-03-01T00:23:17;5.30;;;3.88;;
36931;SDS011;22847;42.654;23.370;2023-03-01T00:25:43;5.13;;;3.70;;
36931;SDS011;22847;42.654;23.370;2023-03-01T00:28:08;6.32;;;4.20;;
36931;SDS011;22847;42.654;23.370;2023-03-01T00:30:34;7.68;;;3.75;;
36931;SDS011;22847;42.654;23.370;2023-03-01T00:32:59;5.25;;;3.83;;
36931;SDS011;22847;42.654;23.370;2023-03-01T00:35:25;5.05;;;3.45;;
36931;SDS011;22847;42.654;23.370;2023-03-01T00:37:50;5.55;;;3.70;;
36931;SDS011;22847;42.654;23.370;2023-03-01T00:40:22;4.25;;;3.15;;
36931;SDS011;22847;42.654;23.370;2023-03-01T00:42:52;3.72;;;2.90;;
36931;SDS011;22847;42.654;23.370;2023-03-01T00:45:17;4.57;;;2.92;;
36931;SDS011;22847;42.654;23.370;2023-03-01T00:47:42;4.47;;;2.90;;
36931;SDS011;22847;42.654;23.370;2023-03-01T00:50:09;5.15;;;3.72;;
36931;SDS011;22847;42.654;23.370;2023-03-01T00:52:36;3.88;;;3.03;;
36931;SDS011;22847;42.654;23.370;2023-03-01T00:55:01;3.38;;;2.53;;
36931;SDS011;22847;42.654;23.370;2023-03-01T00:57:27;4.35;;;3.13;;
36931;SDS011;22847;42.654;23.370;2023-03-01T00:59:52;4.88;;;2.92;;
36931;SDS011;22847;42.654;23.370;2023-03-01T01:02:18;4.50;;;3.15;;
36931;SDS011;22847;42.654;23.370;2023-03-01T01:04:44;5.38;;;3.22;;
36931;SDS011;22847;42.654;23.370;2023-03-01T01:07:10;3.65;;;2.50;;
36931;SDS011;22847;42.654;23.370;2023-03-01T01:09:36;2.75;;;2.47;;
36931;SDS011;22847;42.654;23.370;2023-03-01T01:12:01;2.92;;;2.35;;
36931;SDS011;22847;42.654;23.370;2023-03-01T01:14:27;3.90;;;2.85;;
36931;SDS011;22847;42.654;23.370;2023-03-01T01:16:53;3.55;;;2.65;;
36931;SDS011;22847;42.654;23.370;2023-03-01T01:19:18;4.07;;;2.55;;
36931;SDS011;22847;42.654;23.370;2023-03-01T01:21:44;4.43;;;2.60;;
36931;SDS011;22847;42.654;23.370;2023-03-01T01:24:10;2.88;;;2.25;;
36931;SDS011;22847;42.654;23.370;2023-03-01T01:26:36;3.25;;;2.38;;
36931;SDS011;22847;42.654;23.370;2023-03-01T01:29:03;3.10;;;2.38;;
36931;SDS011;22847;42.654;23.370;2023-03-01T01:31:29;4.25;;;2.55;;
36931;SDS011;22847;42.654;23.370;2023-03-01T01:33:56;3.65;;;2.30;;
36931;SDS011;22847;42.654;23.370;2023-03-01T01:36:22;2.22;;;2.03;;
36931;SDS011;22847;42.654;23.370;2023-03-01T01:38:48;2.90;;;2.20;;
36931;SDS011;22847;42.654;23.370;2023-03-01T01:41:14;2.30;;;2.05;;
36931;SDS011;22847;42.654;23.370;2023-03-01T01:43:43;2.30;;;1.95;;
36931;SDS011;22847;42.654;23.370;2023-03-01T01:48:48;2.97;;;2.38;;
36931;SDS011;22847;42.654;23.370;2023-03-01T01:51:18;3.25;;;1.92;;
36931;SDS011;22847;42.654;23.370;2023-03-01T01:53:47;2.33;;;2.10;;
36931;SDS011;22847;42.654;23.370;2023-03-01T01:56:18;2.30;;;2.10;;
36931;SDS011;22847;42.654;23.370;2023-03-01T01:58:44;4.68;;;2.33;;
36931;SDS011;22847;42.654;23.370;2023-03-01T02:01:12;2.75;;;1.90;;
36931;SDS011;22847;42.654;23.370;2023-03-01T02:03:38;2.05;;;1.80;;
36931;SDS011;22847;42.654;23.370;2023-03-01T02:08:38;1.55;;;1.45;;
36931;SDS011;22847;42.654;23.370;2023-03-01T02:11:06;2.03;;;1.90;;
36931;SDS011;22847;42.654;23.370;2023-03-01T02:13:33;1.65;;;1.55;;
36931;SDS011;22847;42.654;23.370;2023-03-01T02:16:02;2.22;;;2.03;;
36931;SDS011;22847;42.654;23.370;2023-03-01T02:18:29;2.30;;;2.10;;
36931;SDS011;22847;42.654;23.370;2023-03-01T02:23:36;2.63;;;2.10;;
36931;SDS011;22847;42.654;23.370;2023-03-01T02:26:09;6.68;;;2.40;;
36931;SDS011;22847;42.654;23.370;2023-03-01T02:28:54;2.50;;;2.25;;
36931;SDS011;22847;42.654;23.370;2023-03-01T02:31:20;2.60;;;2.10;;
36931;SDS011;22847;42.654;23.370;2023-03-01T02:34:05;2.30;;;2.03;;
36931;SDS011;22847;42.654;23.370;2023-03-01T02:36:34;2.40;;;2.17;;
36931;SDS011;22847;42.654;23.370;2023-03-01T02:39:03;2.03;;;1.80;;
36931;SDS011;22847;42.654;23.370;2023-03-01T02:41:39;3.75;;;2.75;;
36931;SDS011;22847;42.654;23.370;2023-03-01T02:44:07;2.88;;;2.30;;
36931;SDS011;22847;42.654;23.370;2023-03-01T02:46:33;3.00;;;2.45;;
36931;SDS011;22847;42.654;23.370;2023-03-01T02:49:21;3.20;;;2.75;;
36931;SDS011;22847;42.654;23.370;2023-03-01T02:51:57;5.22;;;2.60;;
36931;SDS011;22847;42.654;23.370;2023-03-01T02:59:32;3.67;;;2.65;;
36931;SDS011;22847;42.654;23.370;2023-03-01T03:02:04;3.58;;;2.95;;
36931;SDS011;22847;42.654;23.370;2023-03-01T03:04:30;4.28;;;3.53;;
36931;SDS011;22847;42.654;23.370;2023-03-01T03:06:56;4.97;;;3.80;;
36931;SDS011;22847;42.654;23.370;2023-03-01T03:09:21;5.45;;;3.92;;
36931;SDS011;22847;42.654;23.370;2023-03-01T03:11:46;6.45;;;4.03;;
36931;SDS011;22847;42.654;23.370;2023-03-01T03:14:13;7.05;;;4.35;;
36931;SDS011;22847;42.654;23.370;2023-03-01T03:16:41;7.32;;;4.40;;
36931;SDS011;22847;42.654;23.370;2023-03-01T03:19:11;5.55;;;4.28;;
36931;SDS011;22847;42.654;23.370;2023-03-01T03:21:36;8.95;;;4.22;;
36931;SDS011;22847;42.654;23.370;2023-03-01T03:24:02;6.68;;;3.92;;
36931;SDS011;22847;42.654;23.370;2023-03-01T03:26:28;6.25;;;4.45;;
36931;SDS011;22847;42.654;23.370;2023-03-01T03:28:54;5.68;;;4.00;;
36931;SDS011;22847;42.654;23.370;2023-03-01T03:31:20;5.20;;;4.13;;
36931;SDS011;22847;42.654;23.370;2023-03-01T03:33:45;5.35;;;3.80;;
36931;SDS011;22847;42.654;23.370;2023-03-01T03:36:15;5.78;;;3.70;;
36931;SDS011;22847;42.654;23.370;2023-03-01T03:38:44;3.33;;;3.00;;
36931;SDS011;22847;42.654;23.370;2023-03-01T03:41:11;4.22;;;3.00;;
36931;SDS011;22847;42.654;23.370;2023-03-01T03:43:37;3.60;;;2.88;;
36931;SDS011;22847;42.654;23.370;2023-03-01T03:46:05;2.90;;;2.40;;
36931;SDS011;22847;42.654;23.370;2023-03-01T03:48:33;4.65;;;2.80;;
36931;SDS011;22847;42.654;23.370;2023-03-01T03:51:00;3.28;;;2.50;;
36931;SDS011;22847;42.654;23.370;2023-03-01T03:53:26;3.70;;;2.78;;
36931;SDS011;22847;42.654;23.370;2023-03-01T03:55:53;12.30;;;3.20;;
36931;SDS011;22847;42.654;23.370;2023-03-01T03:58:20;4.20;;;2.80;;
36931;SDS011;22847;42.654;23.370;2023-03-01T04:00:48;2.78;;;2.38;;
36931;SDS011;22847;42.654;23.370;2023-03-01T04:03:15;3.05;;;2.70;;
36931;SDS011;22847;42.654;23.370;2023-03-01T04:05:43;4.05;;;2.78;;
36931;SDS011;22847;42.654;23.370;2023-03-01T04:08:09;4.47;;;2.85;;
36931;SDS011;22847;42.654;23.370;2023-03-01T04:10:38;4.13;;;3.08;;
36931;SDS011;22847;42.654;23.370;2023-03-01T04:15:38;3.83;;;2.60;;
36931;SDS011;22847;42.654;23.370;2023-03-01T04:18:04;4.43;;;2.97;;
36931;SDS011;22847;42.654;23.370;2023-03-01T04:20:31;3.38;;;2.60;;
36931;SDS011;22847;42.654;23.370;2023-03-01T04:23:32;4.45;;;2.88;;
36931;SDS011;22847;42.654;23.370;2023-03-01T04:25:52;4.60;;;2.80;;
36931;SDS011;22847;42.654;23.370;2023-03-01T04:28:20;4.28;;;3.00;;
36931;SDS011;22847;42.654;23.370;2023-03-01T04:30:53;5.70;;;2.85;;
36931;SDS011;22847;42.654;23.370;2023-03-01T04:33:20;3.33;;;2.75;;
36931;SDS011;22847;42.654;23.370;2023-03-01T04:35:46;4.97;;;2.60;;
36931;SDS011;22847;42.654;23.370;2023-03-01T04:38:14;3.45;;;2.55;;
36931;SDS011;22847;42.654;23.370;2023-03-01T04:40:40;3.60;;;2.80;;
36931;SDS011;22847;42.654;23.370;2023-03-01T04:43:08;6.75;;;2.80;;
36931;SDS011;22847;42.654;23.370;2023-03-01T04:45:34;3.60;;;2.63;;
36931;SDS011;22847;42.654;23.370;2023-03-01T04:48:00;3.65;;;2.67;;
36931;SDS011;22847;42.654;23.370;2023-03-01T04:50:25;7.20;;;4.22;;
36931;SDS011;22847;42.654;23.370;2023-03-01T04:52:51;3.90;;;3.00;;
36931;SDS011;22847;42.654;23.370;2023-03-01T04:55:16;5.38;;;2.70;;
36931;SDS011;22847;42.654;23.370;2023-03-01T04:57:42;5.35;;;3.20;;
36931;SDS011;22847;42.654;23.370;2023-03-01T05:00:09;4.10;;;2.97;;
36931;SDS011;22847;42.654;23.370;2023-03-01T05:02:55;3.95;;;2.88;;
36931;SDS011;22847;42.654;23.370;2023-03-01T05:05:24;2.70;;;2.30;;
36931;SDS011;22847;42.654;23.370;2023-03-01T05:07:55;3.40;;;2.53;;
36931;SDS011;22847;42.654;23.370;2023-03-01T05:10:23;3.83;;;2.53;;
36931;SDS011;22847;42.654;23.370;2023-03-01T05:12:49;3.83;;;2.22;;
36931;SDS011;22847;42.654;23.370;2023-03-01T05:15:17;4.30;;;2.50;;
36931;SDS011;22847;42.654;23.370;2023-03-01T05:17:42;3.75;;;2.58;;
36931;SDS011;22847;42.654;23.370;2023-03-01T05:20:08;4.15;;;2.78;;
36931;SDS011;22847;42.654;23.370;2023-03-01T05:22:35;4.47;;;2.70;;
36931;SDS011;22847;42.654;23.370;2023-03-01T05:25:00;9.40;;;2.50;;
36931;SDS011;22847;42.654;23.370;2023-03-01T05:27:26;5.20;;;3.47;;
36931;SDS011;22847;42.654;23.370;2023-03-01T05:29:51;3.42;;;2.65;;
36931;SDS011;22847;42.654;23.370;2023-03-01T05:32:17;6.03;;;2.80;;
36931;SDS011;22847;42.654;23.370;2023-03-01T05:34:42;3.45;;;2.88;;
36931;SDS011;22847;42.654;23.370;2023-03-01T05:37:09;4.72;;;2.65;;
36931;SDS011;22847;42.654;23.370;2023-03-01T05:39:34;2.88;;;2.40;;
36931;SDS011;22847;42.654;23.370;2023-03-01T05:42:00;6.07;;;3.97;;
36931;SDS011;22847;42.654;23.370;2023-03-01T05:44:27;4.75;;;2.42;;
36931;SDS011;22847;42.654;23.370;2023-03-01T05:46:53;3.67;;;2.38;;
36931;SDS011;22847;42.654;23.370;2023-03-01T05:49:19;4.07;;;2.70;;
36931;SDS011;22847;42.654;23.370;2023-03-01T05:51:48;4.38;;;2.30;;
36931;SDS011;22847;42.654;23.370;2023-03-01T05:54:14;3.00;;;1.92;;
36931;SDS011;22847;42.654;23.370;2023-03-01T05:56:40;2.65;;;2.20;;
36931;SDS011;22847;42.654;23.370;2023-03-01T05:59:05;2.38;;;2.13;;
36931;SDS011;22847;42.654;23.370;2023-03-01T06:01:31;4.10;;;2.80;;
36931;SDS011;22847;42.654;23.370;2023-03-01T06:03:58;3.45;;;2.50;;
36931;SDS011;22847;42.654;23.370;2023-03-01T06:06:23;3.90;;;2.40;;
36931;SDS011;22847;42.654;23.370;2023-03-01T06:08:50;5.88;;;2.47;;
36931;SDS011;22847;42.654;23.370;2023-03-01T06:11:16;5.68;;;2.85;;
36931;SDS011;22847;42.654;23.370;2023-03-01T06:13:44;4.43;;;2.50;;
36931;SDS011;22847;42.654;23.370;2023-03-01T06:16:10;5.70;;;2.88;;
36931;SDS011;22847;42.654;23.370;2023-03-01T06:18:36;5.35;;;2.97;;
36931;SDS011;22847;42.654;23.370;2023-03-01T06:21:02;4.97;;;3.00;;
36931;SDS011;22847;42.654;23.370;2023-03-01T06:23:28;6.25;;;3.13;;
36931;SDS011;22847;42.654;23.370;2023-03-01T06:25:54;5.38;;;3.00;;
36931;SDS011;22847;42.654;23.370;2023-03-01T06:28:19;4.07;;;2.92;;
36931;SDS011;22847;42.654;23.370;2023-03-01T06:30:45;5.55;;;3.70;;
36931;SDS011;22847;42.654;23.370;2023-03-01T06:33:11;6.88;;;3.10;;
36931;SDS011;22847;42.654;23.370;2023-03-01T06:35:36;5.43;;;3.17;;
36931;SDS011;22847;42.654;23.370;2023-03-01T06:38:02;5.60;;;3.25;;
36931;SDS011;22847;42.654;23.370;2023-03-01T06:40:29;6.03;;;3.83;;
36931;SDS011;22847;42.654;23.370;2023-03-01T06:42:56;7.95;;;3.25;;
36931;SDS011;22847;42.654;23.370;2023-03-01T06:45:21;4.07;;;3.15;;
36931;SDS011;22847;42.654;23.370;2023-03-01T06:47:47;5.38;;;3.20;;
36931;SDS011;22847;42.654;23.370;2023-03-01T06:50:12;9.73;;;3.15;;
36931;SDS011;22847;42.654;23.370;2023-03-01T06:52:38;9.73;;;3.30;;
36931;SDS011;22847;42.654;23.370;2023-03-01T06:55:04;7.97;;;3.22;;
36931;SDS011;22847;42.654;23.370;2023-03-01T06:57:30;5.68;;;3.15;;
36931;SDS011;22847;42.654;23.370;2023-03-01T06:59:55;5.43;;;3.05;;
36931;SDS011;22847;42.654;23.370;2023-03-01T07:02:21;5.18;;;2.97;;
36931;SDS011;22847;42.654;23.370;2023-03-01T07:04:48;5.28;;;3.10;;
36931;SDS011;22847;42.654;23.370;2023-03-01T07:07:17;5.70;;;3.33;;
36931;SDS011;22847;42.654;23.370;2023-03-01T07:09:43;4.95;;;3.17;;
36931;SDS011;22847;42.654;23.370;2023-03-01T07:12:12;7.25;;;3.17;;
36931;SDS011;22847;42.654;23.370;2023-03-01T07:14:37;7.80;;;3.20;;
36931;SDS011;22847;42.654;23.370;2023-03-01T07:17:02;6.50;;;2.90;;
36931;SDS011;22847;42.654;23.370;2023-03-01T07:19:28;4.65;;;2.67;;
36931;SDS011;22847;42.654;23.370;2023-03-01T07:21:53;4.32;;;2.50;;
36931;SDS011;22847;42.654;23.370;2023-03-01T07:24:20;9.13;;;2.63;;
36931;SDS011;22847;42.654;23.370;2023-03-01T07:26:48;5.00;;;2.90;;
36931;SDS011;22847;42.654;23.370;2023-03-01T07:29:14;10.25;;;2.40;;
36931;SDS011;22847;42.654;23.370;2023-03-01T07:31:40;4.00;;;2.50;;
36931;SDS011;22847;42.654;23.370;2023-03-01T07:34:05;6.32;;;2.60;;
36931;SDS011;22847;42.654;23.370;2023-03-01T07:36:31;8.43;;;2.35;;
36931;SDS011;22847;42.654;23.370;2023-03-01T07:38:56;4.82;;;2.35;;
36931;SDS011;22847;42.654;23.370;2023-03-01T07:41:22;5.78;;;2.70;;
36931;SDS011;22847;42.654;23.370;2023-03-01T07:43:49;5.50;;;2.50;;
36931;SDS011;22847;42.654;23.370;2023-03-01T07:46:14;5.90;;;2.78;;
36931;SDS011;22847;42.654;23.370;2023-03-01T07:48:40;3.97;;;2.70;;
36931;SDS011;22847;42.654;23.370;2023-03-01T07:51:05;2.60;;;2.03;;
36931;SDS011;22847;42.654;23.370;2023-03-01T07:53:33;5.80;;;2.10;;
36931;SDS011;22847;42.654;23.370;2023-03-01T07:56:02;10.20;;;2.78;;
36931;SDS011;22847;42.654;23.370;2023-03-01T07:58:36;2.33;;;1.83;;
36931;SDS011;22847;42.654;23.370;2023-03-01T08:01:03;3.38;;;2.22;;
36931;SDS011;22847;42.654;23.370;2023-03-01T08:03:30;3.28;;;2.08;;
36931;SDS011;22847;42.654;23.370;2023-03-01T08:05:55;8.20;;;2.20;;
36931;SDS011;22847;42.654;23.370;2023-03-01T08:08:21;3.90;;;2.13;;
36931;SDS011;22847;42.654;23.370;2023-03-01T08:10:46;9.10;;;2.10;;
36931;SDS011;22847;42.654;23.370;2023-03-01T08:13:12;6.05;;;2.45;;
36931;SDS011;22847;42.654;23.370;2023-03-01T08:15:37;2.55;;;1.83;;
36931;SDS011;22847;42.654;23.370;2023-03-01T08:18:02;4.28;;;2.40;;
36931;SDS011;22847;42.654;23.370;2023-03-01T08:20:28;3.63;;;2.47;;
36931;SDS011;22847;42.654;23.370;2023-03-01T08:22:53;3.47;;;2.45;;
36931;SDS011;22847;42.654;23.370;2023-03-01T08:25:18;5.10;;;2.60;;
36931;SDS011;22847;42.654;23.370;2023-03-01T08:27:44;5.53;;;2.38;;
36931;SDS011;22847;42.654;23.370;2023-03-01T08:30:09;4.05;;;3.20;;
36931;SDS011;22847;42.654;23.370;2023-03-01T08:32:36;4.13;;;3.03;;
36931;SDS011;22847;42.654;23.370;2023-03-01T08:35:03;6.28;;;2.80;;
36931;SDS011;22847;42.654;23.370;2023-03-01T08:37:28;4.55;;;2.95;;
36931;SDS011;22847;42.654;23.370;2023-03-01T08:39:55;3.05;;;2.55;;
36931;SDS011;22847;42.654;23.370;2023-03-01T08:42:21;4.40;;;2.95;;
36931;SDS011;22847;42.654;23.370;2023-03-01T08:44:46;7.70;;;2.95;;
36931;SDS011;22847;42.654;23.370;2023-03-01T08:47:12;3.90;;;3.10;;
36931;SDS011;22847;42.654;23.370;2023-03-01T08:49:37;7.18;;;2.83;;
36931;SDS011;22847;42.654;23.370;2023-03-01T08:52:03;3.55;;;2.78;;
36931;SDS011;22847;42.654;23.370;2023-03-01T08:54:28;10.15;;;3.80;;
36931;SDS011;22847;42.654;23.370;2023-03-01T08:56:53;8.70;;;3.53;;
36931;SDS011;22847;42.654;23.370;2023-03-01T08:59:19;7.00;;;3.67;;
36931;SDS011;22847;42.654;23.370;2023-03-01T09:01:44;6.32;;;3.90;;
36931;SDS011;22847;42.654;23.370;2023-03-01T09:04:10;5.65;;;4.20;;
36931;SDS011;22847;42.654;23.370;2023-03-01T09:06:36;5.00;;;3.63;;
36931;SDS011;22847;42.654;23.370;2023-03-01T09:09:02;4.05;;;3.13;;
36931;SDS011;22847;42.654;23.370;2023-03-01T09:11:29;5.18;;;2.70;;
36931;SDS011;22847;42.654;23.370;2023-03-01T09:13:55;7.10;;;2.53;;
36931;SDS011;22847;42.654;23.370;2023-03-01T09:16:21;4.25;;;2.78;;
36931;SDS011;22847;42.654;23.370;2023-03-01T09:18:51;6.30;;;2.92;;
36931;SDS011;22847;42.654;23.370;2023-03-01T09:21:19;5.97;;;3.08;;
36931;SDS011;22847;42.654;23.370;2023-03-01T09:23:46;5.72;;;2.20;;
36931;SDS011;22847;42.654;23.370;2023-03-01T09:26:17;4.43;;;2.33;;
36931;SDS011;22847;42.654;23.370;2023-03-01T09:28:44;3.63;;;2.30;;
36931;SDS011;22847;42.654;23.370;2023-03-01T09:31:10;4.97;;;2.15;;
36931;SDS011;22847;42.654;23.370;2023-03-01T09:33:40;2.40;;;1.90;;
36931;SDS011;22847;42.654;23.370;2023-03-01T09:36:07;4.22;;;1.83;;
36931;SDS011;22847;42.654;23.370;2023-03-01T09:38:35;9.02;;;2.00;;
36931;SDS011;22847;42.654;23.370;2023-03-01T09:41:01;2.65;;;1.80;;
36931;SDS011;22847;42.654;23.370;2023-03-01T09:46:19;5.35;;;2.10;;
36931;SDS011;22847;42.654;23.370;2023-03-01T09:51:19;8.63;;;1.88;;
36931;SDS011;22847;42.654;23.370;2023-03-01T09:53:49;2.55;;;1.50;;
36931;SDS011;22847;42.654;23.370;2023-03-01T09:58:54;5.40;;;1.98;;
36931;SDS011;22847;42.654;23.370;2023-03-01T10:01:47;2.95;;;2.33;;
36931;SDS011;22847;42.654;23.370;2023-03-01T10:06:51;2.58;;;1.80;;
36931;SDS011;22847;42.654;23.370;2023-03-01T10:09:21;3.60;;;1.90;;
36931;SDS011;22847;42.654;23.370;2023-03-01T10:11:50;3.35;;;1.80;;
36931;SDS011;22847;42.654;23.370;2023-03-01T10:14:33;4.95;;;1.73;;
36931;SDS011;22847;42.654;23.370;2023-03-01T10:17:04;3.65;;;2.33;;
36931;SDS011;22847;42.654;23.370;2023-03-01T10:19:44;4.25;;;2.03;;
36931;SDS011;22847;42.654;23.370;2023-03-01T10:24:46;3.22;;;1.90;;
36931;SDS011;22847;42.654;23.370;2023-03-01T10:32:48;2.92;;;2.08;;
36931;SDS011;22847;42.654;23.370;2023-03-01T10:35:23;4.28;;;2.40;;
36931;SDS011;22847;42.654;23.370;2023-03-01T10:43:19;3.65;;;2.15;;
36931;SDS011;22847;42.654;23.370;2023-03-01T10:45:46;3.28;;;2.35;;
36931;SDS011;22847;42.654;23.370;2023-03-01T10:50:44;3.20;;;2.38;;
36931;SDS011;22847;42.654;23.370;2023-03-01T10:53:31;3.92;;;2.70;;
36931;SDS011;22847;42.654;23.370;2023-03-01T10:56:07;4.78;;;3.17;;
36931;SDS011;22847;42.654;23.370;2023-03-01T10:58:34;4.47;;;3.22;;
36931;SDS011;22847;42.654;23.370;2023-03-01T11:01:06;6.05;;;3.28;;
36931;SDS011;22847;42.654;23.370;2023-03-01T11:03:41;4.10;;;2.45;;
36931;SDS011;22847;42.654;23.370;2023-03-01T11:11:13;6.10;;;2.50;;
36931;SDS011;22847;42.654;23.370;2023-03-01T11:17:00;3.40;;;2.40;;
36931;SDS011;22847;42.654;23.370;2023-03-01T11:22:04;3.55;;;2.33;;
36931;SDS011;22847;42.654;23.370;2023-03-01T11:24:39;3.88;;;2.88;;
36931;SDS011;22847;42.654;23.370;2023-03-01T11:27:28;2.85;;;2.30;;
36931;SDS011;22847;42.654;23.370;2023-03-01T11:29:59;3.83;;;3.08;;
36931;SDS011;22847;42.654;23.370;2023-03-01T11:32:38;6.40;;;2.72;;
36931;SDS011;22847;42.654;23.370;2023-03-01T11:35:18;3.88;;;3.00;;
36931;SDS011;22847;42.654;23.370;2023-03-01T11:38:02;3.25;;;2.80;;
36931;SDS011;22847;42.654;23.370;2023-03-01T11:40:38;3.72;;;2.92;;
36931;SDS011;22847;42.654;23.370;2023-03-01T11:43:16;6.05;;;3.08;;
36931;SDS011;22847;42.654;23.370;2023-03-01T11:50:52;4.70;;;3.47;;
36931;SDS011;22847;42.654;23.370;2023-03-01T12:01:55;3.90;;;3.17;;
36931;SDS011;22847;42.654;23.370;2023-03-01T12:24:15;5.25;;;3.80;;
36931;SDS011;22847;42.654;23.370;2023-03-01T12:27:12;4.40;;;3.90;;
36931;SDS011;22847;42.654;23.370;2023-03-01T12:29:52;5.95;;;3.55;;
36931;SDS011;22847;42.654;23.370;2023-03-01T12:38:15;6.95;;;4.60;;
36931;SDS011;22847;42.654;23.370;2023-03-01T12:40:58;5.13;;;3.78;;
36931;SDS011;22847;42.654;23.370;2023-03-01T12:51:20;4.82;;;3.40;;
36931;SDS011;22847;42.654;23.370;2023-03-01T12:53:51;4.38;;;3.65;;
36931;SDS011;22847;42.654;23.370;2023-03-01T12:56:32;5.57;;;3.72;;
36931;SDS011;22847;42.654;23.370;2023-03-01T13:04:14;4.78;;;3.50;;
36931;SDS011;22847;42.654;23.370;2023-03-01T13:06:54;5.57;;;3.88;;
36931;SDS011;22847;42.654;23.370;2023-03-01T13:09:26;6.88;;;3.53;;
36931;SDS011;22847;42.654;23.370;2023-03-01T13:11:59;5.75;;;3.28;;
36931;SDS011;22847;42.654;23.370;2023-03-01T13:16:50;4.20;;;3.42;;
36931;SDS011;22847;42.654;23.370;2023-03-01T13:19:17;7.90;;;4.03;;
36931;SDS011;22847;42.654;23.370;2023-03-01T13:21:45;5.78;;;4.10;;
36931;SDS011;22847;42.654;23.370;2023-03-01T13:37:36;9.27;;;3.92;;
36931;SDS011;22847;42.654;23.370;2023-03-01T13:42:49;5.53;;;3.33;;
36931;SDS011;22847;42.654;23.370;2023-03-01T13:45:20;5.82;;;3.63;;
36931;SDS011;22847;42.654;23.370;2023-03-01T13:47:51;4.63;;;3.28;;
36931;SDS011;22847;42.654;23.370;2023-03-01T13:50:21;5.53;;;3.88;;
36931;SDS011;22847;42.654;23.370;2023-03-01T13:53:02;5.43;;;3.80;;
36931;SDS011;22847;42.654;23.370;2023-03-01T13:58:16;10.55;;;4.30;;
36931;SDS011;22847;42.654;23.370;2023-03-01T14:00:41;4.53;;;3.55;;
36931;SDS011;22847;42.654;23.370;2023-03-01T14:05:39;7.75;;;3.83;;
36931;SDS011;22847;42.654;23.370;2023-03-01T14:08:17;4.82;;;3.28;;
36931;SDS011;22847;42.654;23.370;2023-03-01T14:10:54;3.92;;;2.75;;
36931;SDS011;22847;42.654;23.370;2023-03-01T14:13:47;6.47;;;3.17;;
36931;SDS011;22847;42.654;23.370;2023-03-01T14:19:10;7.03;;;3.58;;
36931;SDS011;22847;42.654;23.370;2023-03-01T14:21:41;4.38;;;3.15;;
36931;SDS011;22847;42.654;23.370;2023-03-01T14:24:15;5.53;;;3.35;;
36931;SDS011;22847;42.654;23.370;2023-03-01T14:26:42;5.70;;;3.53;;
36931;SDS011;22847;42.654;23.370;2023-03-01T14:29:22;7.32;;;3.75;;
36931;SDS011;22847;42.654;23.370;2023-03-01T14:31:52;7.07;;;3.65;;
36931;SDS011;22847;42.654;23.370;2023-03-01T14:34:22;6.45;;;3.30;;
36931;SDS011;22847;42.654;23.370;2023-03-01T14:36:49;6.88;;;3.50;;
36931;SDS011;22847;42.654;23.370;2023-03-01T14:39:18;5.57;;;2.85;;
36931;SDS011;22847;42.654;23.370;2023-03-01T14:41:48;7.65;;;3.20;;
36931;SDS011;22847;42.654;23.370;2023-03-01T14:44:19;5.93;;;3.35;;
36931;SDS011;22847;42.654;23.370;2023-03-01T14:46:51;5.68;;;3.25;;
36931;SDS011;22847;42.654;23.370;2023-03-01T14:49:19;7.22;;;3.15;;
36931;SDS011;22847;42.654;23.370;2023-03-01T14:52:06;5.47;;;2.95;;
36931;SDS011;22847;42.654;23.370;2023-03-01T14:54:43;5.40;;;2.53;;
36931;SDS011;22847;42.654;23.370;2023-03-01T14:57:16;6.75;;;3.10;;
36931;SDS011;22847;42.654;23.370;2023-03-01T14:59:43;7.35;;;3.35;;
36931;SDS011;22847;42.654;23.370;2023-03-01T15:02:14;6.45;;;2.47;;
36931;SDS011;22847;42.654;23.370;2023-03-01T15:04:43;4.38;;;2.65;;
36931;SDS011;22847;42.654;23.370;2023-03-01T15:07:11;6.93;;;2.95;;
36931;SDS011;22847;42.654;23.370;2023-03-01T15:09:39;7.55;;;3.83;;
36931;SDS011;22847;42.654;23.370;2023-03-01T15:14:59;5.95;;;3.60;;
36931;SDS011;22847;42.654;23.370;2023-03-01T15:17:30;8.00;;;3.67;;
36931;SDS011;22847;42.654;23.370;2023-03-01T15:19:59;7.88;;;3.45;;
36931;SDS011;22847;42.654;23.370;2023-03-01T15:22:26;6.53;;;3.80;;
36931;SDS011;22847;42.654;23.370;2023-03-01T15:24:52;7.28;;;4.15;;
36931;SDS011;22847;42.654;23.370;2023-03-01T15:27:20;8.30;;;4.20;;
36931;SDS011;22847;42.654;23.370;2023-03-01T15:29:49;8.35;;;4.03;;
36931;SDS011;22847;42.654;23.370;2023-03-01T15:34:59;4.95;;;3.60;;
36931;SDS011;22847;42.654;23.370;2023-03-01T15:40:16;7.30;;;4.18;;
36931;SDS011;22847;42.654;23.370;2023-03-01T15:42:49;8.90;;;4.10;;
36931;SDS011;22847;42.654;23.370;2023-03-01T15:47:49;9.52;;;5.20;;
36931;SDS011;22847;42.654;23.370;2023-03-01T15:50:19;8.05;;;4.88;;
36931;SDS011;22847;42.654;23.370;2023-03-01T15:52:47;6.50;;;4.55;;
36931;SDS011;22847;42.654;23.370;2023-03-01T15:57:48;10.05;;;4.32;;
36931;SDS011;22847;42.654;23.370;2023-03-01T16:00:15;7.68;;;4.05;;
36931;SDS011;22847;42.654;23.370;2023-03-01T16:02:42;7.53;;;4.40;;
36931;SDS011;22847;42.654;23.370;2023-03-01T16:05:30;8.23;;;4.68;;
36931;SDS011;22847;42.654;23.370;2023-03-01T16:07:56;6.82;;;3.58;;
36931;SDS011;22847;42.654;23.370;2023-03-01T16:10:21;5.60;;;3.78;;
36931;SDS011;22847;42.654;23.370;2023-03-01T16:12:48;8.32;;;4.03;;
36931;SDS011;22847;42.654;23.370;2023-03-01T16:15:16;9.38;;;4.20;;
36931;SDS011;22847;42.654;23.370;2023-03-01T16:17:44;11.00;;;4.32;;
36931;SDS011;22847;42.654;23.370;2023-03-01T16:20:09;8.35;;;4.35;;
36931;SDS011;22847;42.654;23.370;2023-03-01T16:22:35;7.57;;;4.32;;
36931;SDS011;22847;42.654;23.370;2023-03-01T16:25:00;7.13;;;3.97;;
36931;SDS011;22847;42.654;23.370;2023-03-01T16:27:27;8.07;;;4.05;;
36931;SDS011;22847;42.654;23.370;2023-03-01T16:29:52;7.75;;;4.05;;
36931;SDS011;22847;42.654;23.370;2023-03-01T16:32:18;6.47;;;3.30;;
36931;SDS011;22847;42.654;23.370;2023-03-01T16:34:43;7.75;;;3.45;;
36931;SDS011;22847;42.654;23.370;2023-03-01T16:37:09;8.25;;;3.83;;
36931;SDS011;22847;42.654;23.370;2023-03-01T16:39:34;6.80;;;3.90;;
36931;SDS011;22847;42.654;23.370;2023-03-01T16:42:03;5.40;;;3.28;;
36931;SDS011;22847;42.654;23.370;2023-03-01T16:44:28;4.63;;;3.35;;
36931;SDS011;22847;42.654;23.370;2023-03-01T16:46:53;6.85;;;3.58;;
36931;SDS011;22847;42.654;23.370;2023-03-01T16:49:19;7.40;;;3.60;;
36931;SDS011;22847;42.654;23.370;2023-03-01T16:51:44;9.18;;;3.80;;
36931;SDS011;22847;42.654;23.370;2023-03-01T16:54:09;10.02;;;3.80;;
36931;SDS011;22847;42.654;23.370;2023-03-01T16:56:35;6.80;;;3.45;;
36931;SDS011;22847;42.654;23.370;2023-03-01T16:59:03;11.88;;;3.70;;
36931;SDS011;22847;42.654;23.370;2023-03-01T17:01:29;12.38;;;3.85;;
36931;SDS011;22847;42.654;23.370;2023-03-01T17:03:59;8.25;;;3.92;;
36931;SDS011;22847;42.654;23.370;2023-03-01T17:06:25;5.95;;;3.55;;
36931;SDS011;22847;42.654;23.370;2023-03-01T17:08:52;5.30;;;3.22;;